createdAt,value
2022-10-12T00:00:06.624Z,23.23
2022-10-12T00:02:59.799Z,24.35
2022-10-12T00:05:27.494Z,25.17
2022-10-12T00:07:55.361Z,23.92
2022-10-12T00:10:23.003Z,23.92
2022-10-12T00:12:50.469Z,24.30
2022-10-12T00:15:18.589Z,24.40
2022-10-12T00:17:45.942Z,26.88
2022-10-12T00:20:13.189Z,26.23
2022-10-12T00:22:40.819Z,27.40
2022-10-12T00:25:08.718Z,26.52
2022-10-12T00:27:36.879Z,26.85
2022-10-12T00:30:05.648Z,28.13
2022-10-12T00:32:33.267Z,26.60
2022-10-12T00:35:00.741Z,25.75
2022-10-12T00:37:28.963Z,26.40
2022-10-12T00:39:56.254Z,26.17
2022-10-12T00:42:23.495Z,25.90
2022-10-12T00:44:52.065Z,26.05
2022-10-12T00:47:32.392Z,26.80
2022-10-12T00:50:04.484Z,26.38
2022-10-12T00:52:39.168Z,27.70
2022-10-12T00:55:08.691Z,26.90
2022-10-12T00:57:36.484Z,28.00
2022-10-12T01:00:08.109Z,28.58
2022-10-12T01:02:37.074Z,26.38
2022-10-12T01:05:05.297Z,26.85
2022-10-12T01:07:32.977Z,26.52
2022-10-12T01:10:00.567Z,26.65
2022-10-12T01:12:28.092Z,25.75
2022-10-12T01:14:55.761Z,26.75
2022-10-12T01:17:48.330Z,24.38
2022-10-12T01:20:40.691Z,24.30
2022-10-12T01:23:31.701Z,26.00
2022-10-12T01:26:06.009Z,26.98
2022-10-12T01:28:36.358Z,25.33
2022-10-12T01:31:19.146Z,26.83
2022-10-12T01:33:52.274Z,26.75
2022-10-12T01:36:31.264Z,27.55
2022-10-12T01:39:16.919Z,28.83
2022-10-12T01:41:50.819Z,27.15
2022-10-12T01:44:25.784Z,27.98
2022-10-12T01:46:54.824Z,27.63
2022-10-12T01:49:28.314Z,29.95
2022-10-12T01:52:00.043Z,27.30
2022-10-12T01:54:45.299Z,29.50
2022-10-12T01:57:21.916Z,27.85
2022-10-12T01:59:59.389Z,28.60
2022-10-12T02:02:37.650Z,28.25
2022-10-12T02:05:25.450Z,28.10
2022-10-12T02:08:00.349Z,27.20
2022-10-12T02:10:33.729Z,29.15
2022-10-12T02:13:05.969Z,28.13
2022-10-12T02:15:33.503Z,26.63
2022-10-12T02:18:03.788Z,25.73
2022-10-12T02:20:33.376Z,26.45
2022-10-12T02:23:02.209Z,28.02
2022-10-12T02:25:31.795Z,25.17
2022-10-12T02:28:20.956Z,24.98
2022-10-12T02:30:54.182Z,25.95
2022-10-12T02:33:30.341Z,27.25
2022-10-12T02:36:12.216Z,27.48
2022-10-12T02:38:53.858Z,28.55
2022-10-12T02:41:28.584Z,26.23
2022-10-12T02:44:00.808Z,26.35
2022-10-12T02:46:29.119Z,26.80
2022-10-12T02:48:59.079Z,26.00
2022-10-12T02:51:28.493Z,25.88
2022-10-12T02:53:56.873Z,25.40
2022-10-12T02:56:24.300Z,24.15
2022-10-12T02:58:52.183Z,27.40
2022-10-12T03:01:21.279Z,27.85
2022-10-12T03:03:48.809Z,27.83
2022-10-12T03:06:16.333Z,27.27
2022-10-12T03:08:43.994Z,27.88
2022-10-12T03:11:14.020Z,29.25
2022-10-12T03:13:41.420Z,30.80
2022-10-12T03:16:10.841Z,32.25
2022-10-12T03:18:38.501Z,31.83
2022-10-12T03:21:06.142Z,32.33
2022-10-12T03:23:33.874Z,31.60
2022-10-12T03:26:01.212Z,30.55
2022-10-12T03:28:28.760Z,30.83
2022-10-12T03:30:56.397Z,30.90
2022-10-12T03:33:23.720Z,30.48
2022-10-12T03:35:51.319Z,30.27
2022-10-12T03:38:19.519Z,29.17
2022-10-12T03:40:47.273Z,29.13
2022-10-12T03:43:14.914Z,26.42
2022-10-12T03:45:42.113Z,27.63
2022-10-12T03:48:09.909Z,25.58
2022-10-12T03:50:37.272Z,25.00
2022-10-12T03:53:06.058Z,26.55
2022-10-12T03:55:33.851Z,25.65
2022-10-12T03:58:01.671Z,24.50
2022-10-12T04:00:29.023Z,26.38
2022-10-12T04:02:56.734Z,23.52
2022-10-12T04:05:24.231Z,23.92
2022-10-12T04:07:51.606Z,24.23
2022-10-12T04:10:19.269Z,24.20
2022-10-12T04:12:47.014Z,26.30
2022-10-12T04:15:15.044Z,23.45
2022-10-12T04:17:43.292Z,24.38
2022-10-12T04:20:11.339Z,25.73
2022-10-12T04:22:39.995Z,25.63
2022-10-12T04:25:07.987Z,26.00
2022-10-12T04:27:35.652Z,25.80
2022-10-12T04:30:03.202Z,24.92
2022-10-12T04:32:33.548Z,23.92
2022-10-12T04:35:00.951Z,25.02
2022-10-12T04:37:28.742Z,25.02
2022-10-12T04:39:56.117Z,26.85
2022-10-12T04:42:23.628Z,26.63
2022-10-12T04:44:51.037Z,27.73
2022-10-12T04:47:18.693Z,26.80
2022-10-12T04:49:46.129Z,27.40
2022-10-12T04:52:15.078Z,28.35
2022-10-12T04:54:43.581Z,28.35
2022-10-12T04:57:11.362Z,29.63
2022-10-12T04:59:38.711Z,32.25
2022-10-12T05:02:06.239Z,31.50
2022-10-12T05:07:01.543Z,32.75
2022-10-12T05:09:34.019Z,31.98
2022-10-12T05:12:02.132Z,35.08
2022-10-12T05:14:35.754Z,32.90
2022-10-12T05:17:03.804Z,34.08
2022-10-12T05:19:31.539Z,36.38
2022-10-12T05:21:58.966Z,32.83
2022-10-12T05:24:26.753Z,34.85
2022-10-12T05:26:54.262Z,33.40
2022-10-12T05:29:21.735Z,35.05
2022-10-12T05:31:49.063Z,35.95
2022-10-12T05:34:16.935Z,34.80
2022-10-12T05:36:44.461Z,35.20
2022-10-12T05:39:12.081Z,36.58
2022-10-12T05:41:39.379Z,36.22
2022-10-12T05:44:07.175Z,40.00
2022-10-12T05:46:34.451Z,47.78
2022-10-12T05:49:01.970Z,50.97
2022-10-12T05:51:29.333Z,54.47
2022-10-12T05:53:57.023Z,52.80
2022-10-12T05:56:24.199Z,42.78
2022-10-12T05:58:51.961Z,40.00
2022-10-12T06:01:19.307Z,30.63
2022-10-12T06:03:46.934Z,26.95
2022-10-12T06:06:14.257Z,23.40
2022-10-12T06:08:42.004Z,21.20
2022-10-12T06:11:10.381Z,20.85
2022-10-12T06:13:37.971Z,21.60
2022-10-12T06:16:05.698Z,21.75
2022-10-12T06:18:33.498Z,19.50
2022-10-12T06:21:21.512Z,20.40
2022-10-12T06:23:49.278Z,21.35
2022-10-12T06:26:21.959Z,21.75
2022-10-12T06:28:49.608Z,19.48
2022-10-12T06:31:16.981Z,20.42
2022-10-12T06:33:44.549Z,19.65
2022-10-12T06:36:12.098Z,19.05
2022-10-12T06:38:39.818Z,18.33
2022-10-12T06:41:07.179Z,19.35
2022-10-12T06:43:35.140Z,19.15
2022-10-12T06:46:02.931Z,18.55
2022-10-12T06:48:31.432Z,17.92
2022-10-12T06:50:59.296Z,18.33
2022-10-12T06:53:33.054Z,17.52
2022-10-12T06:56:01.190Z,16.83
2022-10-12T06:58:28.819Z,17.95
2022-10-12T07:00:56.573Z,17.10
2022-10-12T07:03:24.245Z,16.17
2022-10-12T07:05:51.644Z,16.17
2022-10-12T07:08:19.291Z,18.02
2022-10-12T07:10:46.580Z,15.60
2022-10-12T07:13:14.375Z,15.60
2022-10-12T07:15:41.792Z,15.45
2022-10-12T07:18:09.609Z,16.50
2022-10-12T07:20:40.112Z,16.00
2022-10-12T07:23:07.923Z,15.82
2022-10-12T07:25:35.242Z,16.33
2022-10-12T07:28:05.441Z,16.45
2022-10-12T07:30:33.055Z,17.42
2022-10-12T07:33:00.782Z,15.55
2022-10-12T07:35:28.270Z,16.42
2022-10-12T07:37:55.889Z,15.80
2022-10-12T07:40:23.113Z,16.00
2022-10-12T07:43:14.743Z,16.60
2022-10-12T07:45:37.988Z,15.95
2022-10-12T07:48:05.628Z,15.10
2022-10-12T07:50:33.356Z,14.77
2022-10-12T07:53:00.711Z,15.15
2022-10-12T07:55:29.902Z,15.50
2022-10-12T07:57:57.346Z,13.85
2022-10-12T08:00:25.204Z,13.88
2022-10-12T08:02:52.400Z,13.93
2022-10-12T08:05:21.538Z,13.30
2022-10-12T08:07:49.945Z,11.98
2022-10-12T08:10:18.478Z,12.55
2022-10-12T08:12:51.110Z,12.65
2022-10-12T08:15:20.275Z,11.65
2022-10-12T08:17:47.504Z,12.00
2022-10-12T08:20:15.534Z,13.20
2022-10-12T08:22:42.962Z,12.23
2022-10-12T08:25:10.589Z,11.18
2022-10-12T08:27:39.004Z,10.85
2022-10-12T08:30:07.312Z,9.98
2022-10-12T08:32:34.732Z,9.13
2022-10-12T08:35:02.729Z,9.77
2022-10-12T08:37:30.555Z,9.52
2022-10-12T08:40:02.283Z,9.23
2022-10-12T08:42:48.571Z,9.45
2022-10-12T08:45:30.070Z,10.60
2022-10-12T08:48:08.459Z,9.75
2022-10-12T08:50:41.094Z,9.20
2022-10-12T08:53:20.798Z,9.23
2022-10-12T08:55:48.497Z,8.88
2022-10-12T08:58:21.811Z,8.23
2022-10-12T09:00:57.824Z,7.38
2022-10-12T09:03:54.883Z,8.25
2022-10-12T09:06:24.747Z,7.35
2022-10-12T09:09:14.294Z,7.97
2022-10-12T09:12:01.260Z,7.32
2022-10-12T09:14:34.526Z,5.85
2022-10-12T09:17:03.266Z,6.07
2022-10-12T09:19:37.817Z,5.78
2022-10-12T09:22:06.236Z,6.53
2022-10-12T09:24:37.462Z,5.55
2022-10-12T09:27:19.024Z,6.35
2022-10-12T09:29:48.036Z,5.38
2022-10-12T09:32:40.149Z,5.13
2022-10-12T09:35:08.402Z,4.75
2022-10-12T09:37:36.704Z,4.43
2022-10-12T09:40:04.562Z,4.03
2022-10-12T09:42:33.922Z,3.72
2022-10-12T09:45:20.062Z,4.32
2022-10-12T09:48:25.292Z,3.47
2022-10-12T09:51:04.028Z,2.80
2022-10-12T09:53:55.362Z,3.00
2022-10-12T09:56:30.863Z,4.40
2022-10-12T09:59:07.147Z,3.92
2022-10-12T10:01:35.761Z,3.53
2022-10-12T10:04:18.262Z,3.67
2022-10-12T10:06:47.016Z,3.28
2022-10-12T10:09:34.397Z,3.13
2022-10-12T10:12:22.734Z,3.38
2022-10-12T10:14:51.999Z,3.38
2022-10-12T10:17:34.030Z,3.10
2022-10-12T10:20:04.854Z,2.58
2022-10-12T10:22:32.515Z,2.85
2022-10-12T10:25:01.075Z,2.60
2022-10-12T10:27:39.930Z,2.90
2022-10-12T10:30:40.749Z,2.00
2022-10-12T10:33:18.669Z,2.80
2022-10-12T10:36:25.523Z,2.58
2022-10-12T10:38:58.218Z,2.30
2022-10-12T10:41:38.821Z,2.70
2022-10-12T10:44:34.005Z,2.60
2022-10-12T10:47:04.554Z,2.28
2022-10-12T10:49:49.630Z,2.58
2022-10-12T10:52:31.671Z,2.83
2022-10-12T10:55:28.950Z,2.42
2022-10-12T10:58:02.623Z,3.00
2022-10-12T11:00:38.574Z,2.22
2022-10-12T11:03:15.259Z,3.13
2022-10-12T11:05:50.159Z,2.88
2022-10-12T11:08:26.454Z,3.90
2022-10-12T11:10:58.151Z,3.63
2022-10-12T11:13:35.056Z,3.45
2022-10-12T11:16:20.701Z,4.65
2022-10-12T11:18:55.536Z,3.55
2022-10-12T11:21:48.282Z,3.45
2022-10-12T11:24:19.094Z,3.60
2022-10-12T11:26:52.626Z,2.88
2022-10-12T11:29:20.297Z,3.53
2022-10-12T11:31:59.477Z,2.85
2022-10-12T11:34:28.841Z,3.25
2022-10-12T11:37:18.036Z,2.92
2022-10-12T11:39:50.071Z,3.00
2022-10-12T11:42:28.577Z,2.10
2022-10-12T11:44:57.298Z,2.45
2022-10-12T11:47:35.395Z,2.22
2022-10-12T11:50:15.920Z,2.30
2022-10-12T11:52:49.381Z,2.20
2022-10-12T11:55:44.452Z,2.25
2022-10-12T11:58:36.311Z,2.00
2022-10-12T12:01:34.580Z,2.75
2022-10-12T12:04:48.086Z,1.88
2022-10-12T12:07:46.775Z,2.10
2022-10-12T12:10:35.620Z,2.00
2022-10-12T12:13:24.066Z,1.67
2022-10-12T12:15:52.128Z,2.75
2022-10-12T12:18:21.963Z,2.10
2022-10-12T12:20:49.475Z,2.38
2022-10-12T12:23:29.786Z,2.13
2022-10-12T12:26:16.822Z,2.20
2022-10-12T12:28:49.974Z,1.98
2022-10-12T12:31:23.533Z,2.53
2022-10-12T12:34:19.745Z,1.92
2022-10-12T12:36:48.903Z,2.10
2022-10-12T12:39:30.752Z,2.35
2022-10-12T12:42:03.770Z,2.42
2022-10-12T12:44:37.419Z,3.20
2022-10-12T12:47:20.542Z,3.30
2022-10-12T12:49:56.196Z,2.70
2022-10-12T12:52:24.693Z,2.30
2022-10-12T12:54:57.970Z,2.15
2022-10-12T12:58:02.985Z,3.03
2022-10-12T13:00:52.362Z,2.88
2022-10-12T13:03:20.079Z,2.22
2022-10-12T13:06:24.889Z,2.78
2022-10-12T13:09:14.298Z,2.63
2022-10-12T13:12:20.268Z,3.67
2022-10-12T13:15:00.339Z,2.50
2022-10-12T13:17:49.050Z,2.70
2022-10-12T13:20:20.039Z,3.08
2022-10-12T13:22:48.633Z,2.55
2022-10-12T13:25:29.199Z,2.90
2022-10-12T13:27:57.301Z,2.80
2022-10-12T13:30:33.934Z,2.15
2022-10-12T13:33:22.581Z,2.60
2022-10-12T13:35:57.746Z,2.95
2022-10-12T13:38:29.663Z,2.70
2022-10-12T13:41:12.374Z,2.87
2022-10-12T13:43:48.889Z,2.80
2022-10-12T13:46:36.979Z,2.75
2022-10-12T13:49:13.602Z,2.60
2022-10-12T13:51:43.540Z,2.58
2022-10-12T13:54:28.594Z,2.85
2022-10-12T13:56:59.801Z,2.53
2022-10-12T13:59:29.883Z,2.50
2022-10-12T14:02:03.008Z,2.38
2022-10-12T14:04:32.624Z,2.70
2022-10-12T14:07:01.675Z,2.85
2022-10-12T14:09:36.973Z,3.22
2022-10-12T14:12:04.915Z,2.95
2022-10-12T14:14:37.137Z,3.50
2022-10-12T14:17:05.041Z,3.00
2022-10-12T14:19:45.161Z,2.72
2022-10-12T14:22:21.376Z,2.80
2022-10-12T14:24:49.001Z,2.70
2022-10-12T14:27:23.757Z,2.58
2022-10-12T14:29:54.879Z,2.63
2022-10-12T14:32:22.498Z,2.47
2022-10-12T14:34:51.022Z,3.42
2022-10-12T14:37:20.562Z,2.67
2022-10-12T14:39:49.407Z,2.60
2022-10-12T14:42:21.009Z,3.22
2022-10-12T14:44:49.677Z,3.28
2022-10-12T14:47:30.144Z,5.03
2022-10-12T14:49:59.481Z,4.20
2022-10-12T14:52:34.477Z,13.27
2022-10-12T14:55:02.220Z,26.02
2022-10-12T14:57:31.174Z,15.00
2022-10-12T14:59:58.949Z,5.25
2022-10-12T15:02:31.569Z,6.82
2022-10-12T15:04:59.619Z,6.80
2022-10-12T15:07:30.791Z,30.10
2022-10-12T15:09:58.877Z,28.15
2022-10-12T15:12:28.056Z,18.80
2022-10-12T15:14:56.315Z,20.55
2022-10-12T15:17:23.833Z,24.27
2022-10-12T15:19:52.268Z,22.23
2022-10-12T15:22:22.413Z,14.43
2022-10-12T15:24:51.075Z,21.95
2022-10-12T15:27:18.979Z,23.13
2022-10-12T15:29:48.197Z,21.23
2022-10-12T15:32:18.111Z,24.63
2022-10-12T15:34:45.953Z,15.45
2022-10-12T15:37:14.257Z,32.15
2022-10-12T15:39:43.354Z,23.38
2022-10-12T15:42:12.601Z,9.80
2022-10-12T15:44:41.505Z,5.85
2022-10-12T15:47:11.442Z,6.68
2022-10-12T15:49:39.628Z,5.57
2022-10-12T15:52:09.016Z,5.40
2022-10-12T15:54:36.819Z,7.10
2022-10-12T15:57:04.278Z,6.55
2022-10-12T15:59:32.408Z,5.53
2022-10-12T16:02:00.021Z,6.88
2022-10-12T16:04:27.784Z,6.50
2022-10-12T16:06:55.260Z,7.72
2022-10-12T16:09:23.101Z,7.82
2022-10-12T16:11:50.524Z,7.20
2022-10-12T16:14:18.283Z,6.10
2022-10-12T16:16:45.694Z,5.60
2022-10-12T16:19:13.378Z,7.38
2022-10-12T16:21:40.788Z,8.82
2022-10-12T16:24:08.333Z,8.45
2022-10-12T16:26:36.048Z,8.55
2022-10-12T16:29:03.574Z,9.10
2022-10-12T16:31:31.162Z,8.90
2022-10-12T16:33:58.778Z,8.77
2022-10-12T16:36:26.362Z,8.95
2022-10-12T16:38:54.720Z,9.95
2022-10-12T16:41:22.825Z,9.70
2022-10-12T16:43:50.354Z,10.27
2022-10-12T16:46:18.289Z,10.45
2022-10-12T16:48:45.834Z,10.88
2022-10-12T16:51:13.791Z,10.90
2022-10-12T16:53:42.583Z,11.18
2022-10-12T16:56:11.083Z,12.18
2022-10-12T16:58:38.644Z,12.23
2022-10-12T17:01:11.259Z,12.57
2022-10-12T17:03:39.136Z,11.07
2022-10-12T17:06:07.450Z,12.20
2022-10-12T17:08:35.794Z,11.77
2022-10-12T17:11:12.006Z,21.15
2022-10-12T17:13:43.071Z,17.83
2022-10-12T17:16:31.653Z,16.40
2022-10-12T17:18:59.894Z,16.45
2022-10-12T17:21:28.373Z,21.05
2022-10-12T17:23:58.313Z,13.38
2022-10-12T17:26:26.661Z,10.07
2022-10-12T17:28:54.647Z,10.15
2022-10-12T17:31:22.547Z,10.43
2022-10-12T17:33:50.178Z,9.70
2022-10-12T17:36:18.244Z,10.05
2022-10-12T17:38:48.493Z,11.55
2022-10-12T17:41:16.375Z,14.68
2022-10-12T17:43:43.703Z,14.48
2022-10-12T17:46:11.387Z,17.10
2022-10-12T17:48:38.930Z,17.58
2022-10-12T17:51:09.762Z,14.35
2022-10-12T17:53:37.309Z,13.15
2022-10-12T17:56:06.946Z,12.50
2022-10-12T17:58:34.723Z,15.00
2022-10-12T18:01:07.366Z,15.55
2022-10-12T18:03:35.066Z,22.42
2022-10-12T18:06:04.640Z,14.65
2022-10-12T18:08:32.803Z,23.33
2022-10-12T18:11:01.035Z,20.42
2022-10-12T18:13:29.171Z,15.73
2022-10-12T18:15:56.769Z,17.55
2022-10-12T18:18:24.650Z,18.10
2022-10-12T18:20:52.151Z,15.65
2022-10-12T18:23:20.469Z,15.38
2022-10-12T18:25:48.023Z,15.32
2022-10-12T18:28:15.758Z,15.32
2022-10-12T18:30:51.196Z,16.13
2022-10-12T18:33:18.548Z,16.25
2022-10-12T18:35:46.259Z,16.70
2022-10-12T18:38:13.836Z,17.65
2022-10-12T18:40:42.501Z,17.67
2022-10-12T18:43:11.369Z,17.52
2022-10-12T18:45:43.624Z,18.98
2022-10-12T18:48:15.300Z,14.40
2022-10-12T18:50:43.279Z,20.33
2022-10-12T18:53:11.413Z,16.48
2022-10-12T18:55:39.516Z,16.13
2022-10-12T18:58:07.334Z,18.80
2022-10-12T19:00:35.335Z,23.27
2022-10-12T19:03:02.973Z,22.48
2022-10-12T19:05:30.862Z,21.05
2022-10-12T19:07:58.734Z,23.58
2022-10-12T19:10:26.321Z,29.30
2022-10-12T19:12:54.190Z,26.52
2022-10-12T19:15:22.097Z,23.65
2022-10-12T19:17:49.701Z,26.15
2022-10-12T19:20:18.052Z,24.95
2022-10-12T19:22:45.635Z,24.85
2022-10-12T19:25:13.363Z,27.13
2022-10-12T19:27:40.828Z,26.60
2022-10-12T19:30:09.423Z,26.35
2022-10-12T19:32:36.931Z,23.52
2022-10-12T19:35:05.085Z,30.17
2022-10-12T19:37:33.135Z,28.88
2022-10-12T19:40:05.189Z,29.00
2022-10-12T19:42:35.108Z,24.52
2022-10-12T19:45:03.529Z,24.70
2022-10-12T19:47:31.278Z,25.13
2022-10-12T19:49:59.102Z,25.63
2022-10-12T19:52:26.499Z,25.38
2022-10-12T19:54:54.457Z,24.33
2022-10-12T19:57:22.161Z,25.52
2022-10-12T19:59:50.169Z,24.13
2022-10-12T20:02:17.692Z,24.90
2022-10-12T20:04:45.362Z,25.33
2022-10-12T20:07:13.488Z,25.65
2022-10-12T20:09:40.934Z,24.20
2022-10-12T20:12:09.247Z,26.10
2022-10-12T20:14:36.775Z,25.75
2022-10-12T20:17:04.065Z,25.80
2022-10-12T20:19:32.119Z,23.65
2022-10-12T20:21:59.461Z,20.45
2022-10-12T20:24:27.059Z,25.13
2022-10-12T20:26:54.581Z,24.65
2022-10-12T20:29:22.219Z,25.52
2022-10-12T20:31:50.242Z,26.17
2022-10-12T20:34:17.940Z,27.52
2022-10-12T20:36:45.658Z,28.90
2022-10-12T20:39:13.461Z,25.98
2022-10-12T20:41:41.531Z,28.95
2022-10-12T20:44:09.779Z,23.65
2022-10-12T20:46:37.251Z,24.10
2022-10-12T20:49:05.156Z,26.55
2022-10-12T20:51:36.049Z,25.95
2022-10-12T20:54:05.837Z,27.25
2022-10-12T20:56:34.233Z,26.27
2022-10-12T20:59:02.270Z,24.98
2022-10-12T21:01:30.043Z,25.90
2022-10-12T21:03:58.498Z,26.92
2022-10-12T21:06:26.247Z,27.08
2022-10-12T21:08:56.327Z,26.33
2022-10-12T21:11:26.729Z,24.27
2022-10-12T21:13:54.876Z,27.17
2022-10-12T21:16:22.438Z,24.45
2022-10-12T21:18:54.410Z,24.17
2022-10-12T21:21:22.398Z,24.58
2022-10-12T21:23:59.957Z,24.95
2022-10-12T21:26:30.875Z,23.75
2022-10-12T21:29:01.239Z,24.48
2022-10-12T21:31:32.658Z,23.27
2022-10-12T21:34:06.267Z,25.75
2022-10-12T21:36:36.678Z,22.35
2022-10-12T21:39:08.393Z,23.10
2022-10-12T21:41:36.057Z,22.17
2022-10-12T21:44:03.925Z,24.45
2022-10-12T21:46:32.710Z,23.65
2022-10-12T21:49:01.694Z,23.98
2022-10-12T21:51:31.711Z,23.88
2022-10-12T21:53:59.285Z,23.38
2022-10-12T21:56:29.462Z,22.85
2022-10-12T21:58:59.991Z,23.52
2022-10-12T22:01:34.940Z,24.90
2022-10-12T22:04:05.200Z,25.05
2022-10-12T22:06:33.113Z,24.50
2022-10-12T22:09:05.474Z,24.42
2022-10-12T22:11:35.173Z,24.90
2022-10-12T22:14:05.305Z,25.33
2022-10-12T22:16:35.318Z,22.95
2022-10-12T22:19:04.413Z,25.05
2022-10-12T22:21:36.533Z,26.38
2022-10-12T22:24:05.131Z,26.10
2022-10-12T22:26:32.635Z,25.30
2022-10-12T22:29:04.560Z,25.80
2022-10-12T22:31:32.376Z,23.85
2022-10-12T22:33:59.670Z,25.50
2022-10-12T22:36:31.678Z,25.83
2022-10-12T22:39:03.805Z,25.15
2022-10-12T22:41:31.528Z,25.40
2022-10-12T22:43:58.859Z,24.92
2022-10-12T22:46:26.785Z,24.77
2022-10-12T22:48:55.167Z,24.48
2022-10-12T22:51:30.573Z,24.55
2022-10-12T22:53:59.064Z,24.98
2022-10-12T22:56:26.617Z,25.00
2022-10-12T22:58:55.479Z,24.55
2022-10-12T23:01:23.343Z,24.55
2022-10-12T23:03:50.995Z,25.75
2022-10-12T23:06:19.076Z,25.33
2022-10-12T23:08:47.490Z,24.85
2022-10-12T23:11:17.895Z,24.88
2022-10-12T23:13:45.765Z,24.27
2022-10-12T23:16:15.639Z,24.55
2022-10-12T23:18:43.383Z,25.65
2022-10-12T23:21:13.433Z,25.05
2022-10-12T23:23:41.691Z,24.95
2022-10-12T23:26:12.424Z,26.05
2022-10-12T23:28:40.253Z,26.05
2022-10-12T23:31:18.850Z,24.77
2022-10-12T23:33:46.525Z,25.83
2022-10-12T23:36:16.631Z,24.67
2022-10-12T23:38:45.263Z,25.15
2022-10-12T23:41:13.449Z,25.58
2022-10-12T23:43:41.604Z,25.77
2022-10-12T23:46:11.115Z,24.35
2022-10-12T23:48:38.515Z,24.67
2022-10-12T23:51:08.030Z,24.48
2022-10-12T23:53:36.708Z,27.83
2022-10-12T23:56:06.184Z,25.40
2022-10-12T23:58:35.076Z,28.15
